Time;durP1;ratioP1;P1;durP2;ratioP2;P2;SDS_P1;SDS_P2;PMS_P1;PMS_P2;Temp;Humidity;BMP_temperature;BMP_pressure;BME280_temperature;BME280_humidity;BME280_pressure;Samples;Min_cycle;Max_cycle;Signal;HPM_P1;HPM_P2
2021/10/19 00:00:11;;;;;;;13.43;10.87;;;9.30;99.90;;;;;;6159144;28;20533;-63
2021/10/19 00:03:14;;;;;;;12.70;9.70;;;9.30;99.90;;;;;;6161336;28;20879;-63
2021/10/19 00:06:17;;;;;;;11.57;10.20;;;9.20;99.90;;;;;;6162284;28;20470;-64
2021/10/19 00:09:21;;;;;;;12.20;10.80;;;9.20;99.90;;;;;;6161126;28;20487;-64
2021/10/19 00:12:25;;;;;;;11.17;10.07;;;9.10;99.90;;;;;;6160489;28;20462;-63
2021/10/19 00:15:28;;;;;;;14.20;10.87;;;9.10;99.90;;;;;;6159620;28;20458;-63
2021/10/19 00:18:31;;;;;;;11.83;10.63;;;9.10;99.90;;;;;;6159302;28;20459;-63
2021/10/19 00:21:34;;;;;;;13.23;10.40;;;9.10;99.90;;;;;;6159588;28;20465;-63
2021/10/19 00:24:40;;;;;;;11.47;10.37;;;9.00;99.90;;;;;;6160494;28;20482;-64
2021/10/19 00:27:43;;;;;;;11.37;9.57;;;9.00;99.90;;;;;;6154345;28;20462;-63
2021/10/19 00:30:46;;;;;;;12.00;10.80;;;9.00;99.90;;;;;;6158319;28;20784;-64
2021/10/19 00:33:50;;;;;;;14.03;9.13;;;9.00;99.90;;;;;;6158011;28;20474;-64
2021/10/19 00:36:53;;;;;;;12.00;10.23;;;8.90;99.90;;;;;;6156117;28;20485;-64
2021/10/19 00:39:57;;;;;;;12.87;10.80;;;8.90;99.90;;;;;;6157073;28;20982;-64
2021/10/19 00:43:00;;;;;;;18.50;11.17;;;8.90;99.90;;;;;;6158212;28;20493;-63
2021/10/19 00:46:04;;;;;;;12.43;10.90;;;8.90;99.90;;;;;;6156731;28;20478;-64
2021/10/19 00:49:07;;;;;;;14.83;11.30;;;8.80;99.90;;;;;;6155903;28;20808;-64
2021/10/19 00:52:10;;;;;;;15.10;13.23;;;8.80;99.90;;;;;;6155946;28;20810;-63
2021/10/19 00:55:15;;;;;;;14.60;13.10;;;8.80;99.90;;;;;;6155603;28;20470;-63
2021/10/19 00:58:18;;;;;;;12.30;10.83;;;8.80;99.90;;;;;;6156475;28;20475;-63
2021/10/19 01:01:21;;;;;;;12.87;11.57;;;8.70;99.90;;;;;;6156047;28;20990;-63
2021/10/19 01:04:25;;;;;;;15.53;11.37;;;8.70;99.90;;;;;;6156000;28;20470;-63
2021/10/19 01:07:28;;;;;;;12.93;10.90;;;8.60;99.90;;;;;;6155329;28;20959;-64
2021/10/19 01:10:33;;;;;;;14.80;11.87;;;8.60;99.90;;;;;;6154111;28;20490;-63
2021/10/19 01:13:36;;;;;;;13.60;10.53;;;8.60;99.90;;;;;;6154100;28;20471;-63
2021/10/19 01:16:39;;;;;;;11.83;10.47;;;8.60;99.90;;;;;;6153727;28;20951;-64
2021/10/19 01:19:43;;;;;;;13.20;9.23;;;8.60;99.90;;;;;;6154016;28;20467;-63
2021/10/19 01:22:47;;;;;;;12.93;10.90;;;8.60;99.90;;;;;;6154148;28;20891;-63
2021/10/19 01:25:51;;;;;;;11.97;10.67;;;8.60;99.90;;;;;;6154815;28;20937;-63
2021/10/19 01:28:54;;;;;;;15.30;10.87;;;8.60;99.90;;;;;;6155157;28;20471;-63
2021/10/19 01:31:57;;;;;;;11.43;10.30;;;8.60;99.90;;;;;;6155359;28;20854;-63
2021/10/19 01:35:00;;;;;;;10.63;9.53;;;8.50;99.90;;;;;;6150841;28;20581;-63
2021/10/19 01:38:06;;;;;;;11.73;10.63;;;8.40;99.90;;;;;;6154860;28;20482;-63
2021/10/19 01:41:09;;;;;;;16.40;11.37;;;8.50;99.90;;;;;;6154604;28;20813;-63
2021/10/19 01:44:13;;;;;;;12.83;11.53;;;8.40;99.90;;;;;;6154633;28;20498;-63
2021/10/19 01:47:16;;;;;;;11.77;10.57;;;8.30;99.90;;;;;;6154302;28;20958;-63
2021/10/19 01:50:20;;;;;;;11.53;10.33;;;8.40;99.90;;;;;;6154312;28;20491;-63
2021/10/19 01:53:24;;;;;;;11.10;10.00;;;8.30;99.90;;;;;;6155272;28;20775;-63
2021/10/19 01:56:28;;;;;;;10.03;9.13;;;8.30;99.90;;;;;;6155338;28;20541;-63
2021/10/19 01:59:31;;;;;;;11.80;10.47;;;8.30;99.90;;;;;;6154982;28;20481;-63
2021/10/19 02:02:34;;;;;;;11.30;10.20;;;8.40;99.90;;;;;;6154999;28;21006;-63
2021/10/19 02:05:38;;;;;;;12.10;10.77;;;8.30;99.90;;;;;;6154452;28;20493;-62
2021/10/19 02:08:42;;;;;;;11.80;10.67;;;8.40;99.90;;;;;;6155239;28;20792;-63
2021/10/19 02:11:45;;;;;;;11.30;10.20;;;8.40;99.90;;;;;;6154786;28;20513;-63
2021/10/19 02:14:49;;;;;;;12.10;10.00;;;8.40;99.90;;;;;;6155282;28;20489;-63
2021/10/19 02:17:52;;;;;;;12.20;10.80;;;8.40;99.90;;;;;;6154387;28;20482;-62
2021/10/19 02:20:55;;;;;;;13.20;10.57;;;8.50;99.90;;;;;;6155076;28;20489;-63
2021/10/19 02:24:00;;;;;;;10.63;9.57;;;8.40;99.90;;;;;;6154880;28;20475;-63
2021/10/19 02:27:03;;;;;;;11.00;8.70;;;8.50;99.90;;;;;;6154506;28;20483;-63
2021/10/19 02:30:08;;;;;;;11.57;10.30;;;8.50;99.90;;;;;;6156350;28;20479;-63
2021/10/19 02:33:11;;;;;;;14.30;10.70;;;8.50;99.90;;;;;;6155106;28;20475;-63
2021/10/19 02:36:14;;;;;;;13.87;12.47;;;8.40;99.90;;;;;;6147244;28;20477;-62
2021/10/19 02:39:19;;;;;;;13.20;11.80;;;8.40;99.90;;;;;;6156877;28;20454;-62
2021/10/19 02:42:22;;;;;;;15.73;11.77;;;8.40;99.90;;;;;;6156819;28;20446;-63
2021/10/19 02:45:26;;;;;;;14.77;11.93;;;8.40;99.90;;;;;;6154072;28;20505;-63
2021/10/19 02:48:29;;;;;;;13.70;10.90;;;8.40;99.90;;;;;;6156396;28;20474;-62
2021/10/19 02:51:32;;;;;;;13.13;10.97;;;8.30;99.90;;;;;;6157427;28;20471;-62
2021/10/19 02:54:37;;;;;;;10.57;9.47;;;8.30;99.90;;;;;;6156785;28;20474;-62
2021/10/19 02:57:40;;;;;;;11.80;10.60;;;8.40;99.90;;;;;;6155292;28;20821;-64
2021/10/19 03:00:44;;;;;;;11.27;10.27;;;8.40;99.90;;;;;;6159257;28;20536;-64
2021/10/19 03:03:47;;;;;;;11.23;10.00;;;8.50;99.90;;;;;;6158586;28;20484;-64
2021/10/19 03:06:50;;;;;;;10.53;9.40;;;8.50;99.90;;;;;;6164123;28;20841;-62
2021/10/19 03:09:54;;;;;;;11.27;9.57;;;8.50;99.90;;;;;;6163333;28;20856;-63
2021/10/19 03:12:57;;;;;;;10.73;9.73;;;8.50;99.90;;;;;;6162922;28;20482;-63
2021/10/19 03:16:01;;;;;;;11.13;9.93;;;8.50;99.90;;;;;;6161548;28;20970;-63
2021/10/19 03:19:04;;;;;;;11.23;8.90;;;8.50;99.90;;;;;;6164315;28;20569;-63
2021/10/19 03:22:07;;;;;;;9.30;8.40;;;8.50;99.90;;;;;;6169266;28;20471;-63
2021/10/19 03:25:12;;;;;;;10.63;8.87;;;8.50;99.90;;;;;;6167102;28;20855;-63
2021/10/19 03:28:15;;;;;;;10.43;9.43;;;8.50;99.90;;;;;;6164671;28;20483;-63
2021/10/19 03:31:18;;;;;;;10.40;9.40;;;8.50;99.90;;;;;;6163273;28;20474;-63
2021/10/19 03:34:21;;;;;;;10.23;9.23;;;8.50;99.90;;;;;;6162893;28;20573;-63
2021/10/19 03:37:24;;;;;;;12.50;10.40;;;8.50;99.90;;;;;;6163516;28;20493;-63
2021/10/19 03:40:29;;;;;;;11.00;9.90;;;8.50;99.90;;;;;;6158022;28;20489;-63
2021/10/19 03:43:32;;;;;;;12.67;10.57;;;8.40;99.90;;;;;;6162150;28;20486;-63
2021/10/19 03:46:35;;;;;;;11.87;10.70;;;8.40;99.90;;;;;;6162507;28;20493;-62
2021/10/19 03:49:38;;;;;;;14.77;13.17;;;8.30;99.90;;;;;;6161365;28;20533;-63
2021/10/19 03:52:42;;;;;;;13.00;11.50;;;8.20;99.90;;;;;;6160777;28;20475;-63
2021/10/19 03:55:47;;;;;;;15.00;13.17;;;8.10;99.90;;;;;;6161519;28;20533;-63
2021/10/19 03:58:51;;;;;;;16.90;13.33;;;8.10;99.90;;;;;;6160543;28;20478;-63
2021/10/19 04:01:57;;;;;;;16.30;13.03;;;8.00;99.90;;;;;;6160575;28;20471;-63
2021/10/19 04:05:00;;;;;;;14.17;12.77;;;7.90;99.90;;;;;;6160131;28;20480;-63
2021/10/19 04:08:03;;;;;;;14.47;12.93;;;7.80;99.90;;;;;;6158559;28;20868;-63
2021/10/19 04:11:08;;;;;;;15.23;13.23;;;7.80;99.90;;;;;;6159194;28;20486;-63
2021/10/19 04:14:11;;;;;;;16.17;14.20;;;7.70;99.90;;;;;;6159814;28;20487;-64
2021/10/19 04:17:16;;;;;;;13.70;12.30;;;7.70;99.90;;;;;;6158828;28;20497;-63
2021/10/19 04:20:19;;;;;;;19.10;14.73;;;7.60;99.90;;;;;;6162063;28;20475;-63
2021/10/19 04:23:22;;;;;;;17.63;15.63;;;7.60;99.90;;;;;;6160680;28;20478;-64
2021/10/19 04:26:27;;;;;;;16.77;14.70;;;7.60;99.90;;;;;;6161315;28;20482;-63
2021/10/19 04:29:30;;;;;;;14.63;12.80;;;7.60;99.90;;;;;;6160510;28;20471;-62
2021/10/19 04:32:33;;;;;;;14.70;13.00;;;7.60;99.90;;;;;;6160872;28;20490;-63
2021/10/19 04:35:36;;;;;;;17.20;13.83;;;7.50;99.90;;;;;;6161072;28;20483;-63
2021/10/19 04:38:39;;;;;;;17.50;14.10;;;7.50;99.90;;;;;;6159894;28;20749;-63
2021/10/19 04:41:44;;;;;;;15.97;13.97;;;7.50;99.90;;;;;;6156793;28;20479;-63
2021/10/19 04:44:48;;;;;;;16.97;14.17;;;7.40;99.90;;;;;;6157765;28;20474;-62
2021/10/19 04:47:51;;;;;;;15.80;14.20;;;7.30;99.90;;;;;;6160080;28;20778;-63
2021/10/19 04:50:54;;;;;;;15.77;14.27;;;7.30;99.90;;;;;;6160370;28;20486;-63
2021/10/19 04:53:58;;;;;;;16.57;13.80;;;7.20;99.90;;;;;;6161526;28;20474;-62
2021/10/19 04:57:02;;;;;;;17.60;14.57;;;7.30;99.90;;;;;;6160607;28;21005;-63
2021/10/19 05:00:07;;;;;;;14.90;12.87;;;7.20;99.90;;;;;;6160243;28;20482;-63
2021/10/19 05:03:10;;;;;;;16.67;13.00;;;7.10;99.90;;;;;;6159224;28;20845;-63
2021/10/19 05:06:14;;;;;;;14.13;12.63;;;7.20;99.90;;;;;;6162880;28;20467;-63
2021/10/19 05:09:17;;;;;;;15.97;14.00;;;7.10;99.90;;;;;;6158525;28;20454;-64
2021/10/19 05:12:22;;;;;;;15.47;13.87;;;7.10;99.90;;;;;;6154835;28;20769;-63
2021/10/19 05:15:26;;;;;;;19.30;17.20;;;7.10;99.90;;;;;;6155064;28;20446;-64
2021/10/19 05:18:29;;;;;;;16.23;14.60;;;7.10;99.90;;;;;;6156709;28;20471;-63
2021/10/19 05:21:33;;;;;;;16.37;14.50;;;7.20;99.90;;;;;;6154352;28;20981;-63
2021/10/19 05:24:36;;;;;;;15.73;13.47;;;7.20;99.90;;;;;;6155327;28;20458;-63
2021/10/19 05:27:40;;;;;;;19.63;14.10;;;7.30;99.90;;;;;;6155151;28;20489;-62
2021/10/19 05:30:43;;;;;;;15.07;13.47;;;7.20;99.90;;;;;;6155322;28;20481;-62
2021/10/19 05:33:47;;;;;;;15.80;13.60;;;7.20;99.90;;;;;;6155943;28;20494;-63
2021/10/19 05:36:50;;;;;;;17.90;14.70;;;7.10;99.90;;;;;;6154663;28;20475;-60
2021/10/19 05:39:53;;;;;;;17.30;13.33;;;7.10;99.90;;;;;;6154567;28;20711;-60
2021/10/19 05:43:17;;;;;;;19.67;14.87;;;7.10;99.90;;;;;;6153115;28;20625;-60
2021/10/19 05:46:20;;;;;;;16.60;14.73;;;7.20;99.90;;;;;;6153816;28;20474;-61
2021/10/19 05:49:24;;;;;;;20.70;16.57;;;7.20;99.90;;;;;;6145242;28;20478;-60
2021/10/19 05:52:29;;;;;;;17.83;15.07;;;7.30;99.90;;;;;;6153499;28;20474;-60
2021/10/19 05:55:32;;;;;;;17.50;15.63;;;7.30;99.90;;;;;;6153064;28;20474;-60
2021/10/19 05:58:39;;;;;;;18.13;16.23;;;7.30;99.90;;;;;;6153609;28;20556;-60
2021/10/19 06:01:42;;;;;;;16.90;14.63;;;7.30;99.90;;;;;;6153577;28;20497;-61
2021/10/19 06:04:45;;;;;;;19.97;15.60;;;7.40;99.90;;;;;;6153850;28;20478;-61
2021/10/19 06:07:50;;;;;;;15.13;13.53;;;7.50;99.90;;;;;;6153111;28;20490;-64
2021/10/19 06:10:56;;;;;;;18.03;14.33;;;7.60;99.90;;;;;;6153501;28;20478;-60
2021/10/19 06:14:00;;;;;;;15.20;13.40;;;7.60;99.90;;;;;;6153212;28;20475;-62
2021/10/19 06:17:04;;;;;;;22.40;14.87;;;7.70;99.90;;;;;;6153079;28;20852;-61
2021/10/19 06:20:08;;;;;;;19.40;13.87;;;7.80;99.90;;;;;;6153393;28;20474;-61
2021/10/19 06:23:11;;;;;;;14.20;12.53;;;8.00;99.90;;;;;;6153248;28;20816;-61
2021/10/19 06:26:14;;;;;;;15.43;13.80;;;8.20;99.90;;;;;;6152963;28;20624;-61
2021/10/19 06:29:19;;;;;;;17.30;13.70;;;8.40;99.90;;;;;;6152829;28;20478;-61
2021/10/19 06:32:22;;;;;;;13.60;11.80;;;8.60;99.90;;;;;;6154495;28;20560;-61
2021/10/19 06:35:25;;;;;;;20.67;13.00;;;8.90;99.90;;;;;;6158847;28;20466;-62
2021/10/19 06:38:28;;;;;;;15.17;13.57;;;9.00;99.90;;;;;;6159919;28;20489;-62
2021/10/19 06:41:32;;;;;;;14.17;12.67;;;9.20;99.90;;;;;;6164836;28;20494;-62
2021/10/19 06:44:36;;;;;;;18.60;11.83;;;9.40;99.90;;;;;;6163430;28;20493;-64
2021/10/19 06:47:48;;;;;;;13.77;11.27;;;9.60;99.90;;;;;;6158294;28;20613;-63
2021/10/19 06:50:52;;;;;;;14.20;12.70;;;9.70;99.90;;;;;;6154504;28;20479;-64
2021/10/19 06:53:55;;;;;;;14.67;13.17;;;9.80;99.90;;;;;;6148474;28;20494;-64
2021/10/19 06:56:58;;;;;;;23.17;14.20;;;9.90;99.90;;;;;;6156766;28;20478;-64
2021/10/19 07:00:04;;;;;;;14.33;12.67;;;10.00;99.90;;;;;;6144120;28;20475;-64
2021/10/19 07:03:07;;;;;;;15.70;13.70;;;10.00;99.90;;;;;;6136231;28;20811;-64
2021/10/19 07:06:11;;;;;;;15.10;12.50;;;10.10;99.90;;;;;;6141072;28;20785;-63
2021/10/19 07:09:14;;;;;;;16.90;13.70;;;10.00;99.90;;;;;;6146143;28;20462;-62
2021/10/19 07:12:18;;;;;;;15.83;13.50;;;10.10;99.90;;;;;;6147156;28;20483;-62
2021/10/19 07:15:22;;;;;;;16.30;13.37;;;10.30;99.90;;;;;;6141943;28;20443;-61
2021/10/19 07:18:27;;;;;;;19.17;12.97;;;10.40;99.90;;;;;;6143646;28;20466;-61
2021/10/19 07:21:30;;;;;;;15.80;14.20;;;10.50;99.90;;;;;;6144046;28;20926;-61
2021/10/19 07:24:33;;;;;;;23.27;15.33;;;10.60;99.90;;;;;;6144213;28;20458;-63
2021/10/19 07:27:36;;;;;;;22.53;16.60;;;10.70;99.90;;;;;;6147265;28;20982;-63
2021/10/19 07:30:41;;;;;;;16.20;14.67;;;10.80;99.90;;;;;;6146499;28;20487;-63
2021/10/19 07:33:44;;;;;;;20.43;15.70;;;11.00;99.90;;;;;;6144414;28;20551;-63
2021/10/19 07:36:47;;;;;;;21.67;17.70;;;11.00;99.90;;;;;;6139827;28;20486;-62
2021/10/19 07:39:51;;;;;;;21.23;15.03;;;11.10;99.90;;;;;;6131625;28;20613;-61
2021/10/19 07:42:55;;;;;;;19.83;15.33;;;11.10;99.90;;;;;;6131362;28;21190;-61
2021/10/19 07:46:00;;;;;;;16.37;14.23;;;11.20;99.90;;;;;;6130968;28;20479;-64
2021/10/19 07:49:04;;;;;;;17.33;15.10;;;11.60;99.90;;;;;;6132651;28;20475;-64
2021/10/19 07:52:07;;;;;;;16.53;14.83;;;12.10;99.90;;;;;;6132070;28;20479;-64
2021/10/19 07:55:12;;;;;;;18.00;14.70;;;12.50;99.80;;;;;;6127241;28;20487;-61
2021/10/19 07:58:15;;;;;;;15.60;12.90;;;12.90;99.20;;;;;;6133825;28;20491;-61
2021/10/19 08:01:20;;;;;;;18.10;14.27;;;13.20;98.50;;;;;;6132349;28;20476;-61
2021/10/19 08:04:23;;;;;;;20.50;15.00;;;13.50;97.70;;;;;;6132598;28;20475;-63
2021/10/19 08:07:26;;;;;;;23.73;18.07;;;13.60;97.00;;;;;;6134721;28;20538;-61
2021/10/19 08:10:29;;;;;;;21.50;17.10;;;13.60;96.80;;;;;;6132266;28;20858;-61
2021/10/19 08:13:32;;;;;;;27.30;18.60;;;13.70;96.90;;;;;;6134076;28;20979;-62
2021/10/19 08:16:38;;;;;;;23.40;17.67;;;14.40;96.70;;;;;;6136771;28;20570;-63
2021/10/19 08:19:41;;;;;;;16.97;15.17;;;15.90;95.10;;;;;;6144059;28;20470;-63
2021/10/19 08:22:44;;;;;;;16.50;13.80;;;17.20;91.90;;;;;;6147391;28;20482;-63
2021/10/19 08:25:47;;;;;;;18.57;14.43;;;18.00;88.50;;;;;;6134718;28;20808;-63
2021/10/19 08:28:53;;;;;;;19.27;15.07;;;18.70;84.90;;;;;;6136772;28;20479;-62
2021/10/19 08:31:57;;;;;;;20.77;18.57;;;20.20;81.10;;;;;;6133610;28;20483;-61
2021/10/19 08:35:01;;;;;;;21.17;15.57;;;22.70;69.30;;;;;;6144035;28;20262;-62
2021/10/19 08:38:05;;;;;;;19.03;17.03;;;25.30;58.60;;;;;;6137703;28;20234;-61
2021/10/19 08:41:08;;;;;;;20.40;17.90;;;26.60;49.80;;;;;;6145960;28;20682;-61
2021/10/19 08:44:11;;;;;;;20.80;15.97;;;27.00;48.00;;;;;;6137618;28;20555;-65
2021/10/19 08:47:16;;;;;;;18.50;16.40;;;27.90;44.20;;;;;;6141481;28;20234;-65
2021/10/19 08:50:22;;;;;;;21.90;16.17;;;27.90;43.40;;;;;;6142817;28;20222;-61
2021/10/19 08:53:26;;;;;;;18.47;16.20;;;27.80;41.60;;;;;;6132643;28;20254;-61
2021/10/19 08:56:31;;;;;;;20.03;16.40;;;26.70;42.80;;;;;;6136066;28;20227;-65
2021/10/19 08:59:44;;;;;;;23.27;19.33;;;25.40;44.30;;;;;;6147795;28;20233;-64
2021/10/19 09:02:49;;;;;;;24.10;19.60;;;24.80;46.60;;;;;;6129740;29;20227;-63
2021/10/19 09:05:53;;;;;;;20.30;16.63;;;26.40;45.30;;;;;;6144174;28;20230;-63
2021/10/19 09:09:04;;;;;;;26.73;21.47;;;28.10;41.80;;;;;;6141815;28;20233;-63
2021/10/19 09:12:08;;;;;;;23.30;20.93;;;30.50;38.70;;;;;;6141098;28;20365;-66
2021/10/19 09:15:12;;;;;;;17.83;16.03;;;31.00;36.50;;;;;;6143461;28;20655;-66
2021/10/19 09:18:20;;;;;;;17.55;15.85;;;32.00;34.30;;;;;;6142830;28;20702;-63
2021/10/19 09:21:29;;;;;;;21.88;15.77;;;32.40;33.00;;;;;;6142363;28;20612;-65
2021/10/19 09:24:33;;;;;;;16.00;14.70;;;34.20;31.80;;;;;;6143536;28;20191;-65
2021/10/19 09:27:42;;;;;;;16.90;15.10;;;36.20;29.30;;;;;;6149533;28;20234;-62
2021/10/19 09:30:47;;;;;;;16.60;14.73;;;36.50;28.20;;;;;;6154227;28;20252;-62
2021/10/19 09:33:58;;;;;;;15.95;14.60;;;38.20;26.80;;;;;;6154379;28;20234;-63
2021/10/19 09:37:03;;;;;;;17.63;15.20;;;39.90;25.00;;;;;;6153515;28;20695;-67
2021/10/19 09:40:10;;;;;;;16.75;15.13;;;40.40;23.80;;;;;;6154440;28;20272;-66
2021/10/19 09:43:15;;;;;;;17.83;16.23;;;39.60;23.50;;;;;;6139657;28;20238;-64
2021/10/19 09:46:24;;;;;;;16.30;14.82;;;38.10;24.30;;;;;;6130881;28;20250;-63
2021/10/19 09:49:30;;;;;;;16.10;14.68;;;38.70;24.80;;;;;;6139595;28;20575;-63
2021/10/19 09:52:34;;;;;;;15.07;13.55;;;39.80;23.80;;;;;;6142843;28;20584;-63
2021/10/19 09:55:38;;;;;;;14.15;12.95;;;39.50;23.10;;;;;;6142982;28;20634;-64
2021/10/19 09:58:42;;;;;;;14.80;13.32;;;37.20;24.10;;;;;;6145766;28;20234;-65
2021/10/19 10:01:46;;;;;;;15.57;14.15;;;34.60;25.90;;;;;;6144400;28;20226;-63
2021/10/19 10:04:52;;;;;;;15.10;13.85;;;33.10;27.70;;;;;;6145595;28;20564;-64
2021/10/19 10:07:56;;;;;;;14.82;13.48;;;34.60;27.40;;;;;;6144410;28;20234;-64
2021/10/19 10:11:00;;;;;;;15.00;13.60;;;36.10;25.80;;;;;;6142699;28;20226;-63
2021/10/19 10:14:04;;;;;;;14.32;13.13;;;35.60;25.80;;;;;;6140278;28;20238;-63
2021/10/19 10:17:10;;;;;;;14.98;13.20;;;35.10;26.00;;;;;;6139494;28;20584;-64
2021/10/19 10:20:15;;;;;;;13.77;12.15;;;34.20;26.60;;;;;;6146260;28;20231;-64
2021/10/19 10:23:21;;;;;;;13.52;12.38;;;34.80;26.80;;;;;;6148593;28;20242;-64
2021/10/19 10:26:26;;;;;;;14.77;13.27;;;36.70;25.50;;;;;;6145658;28;20226;-64
2021/10/19 10:29:38;;;;;;;13.35;12.40;;;38.80;24.20;;;;;;6137574;28;20566;-66
2021/10/19 10:32:41;;;;;;;12.27;11.27;;;40.90;22.50;;;;;;6127809;28;20254;-65
2021/10/19 10:35:47;;;;;;;12.38;11.23;;;42.50;21.50;;;;;;6141993;28;20245;-66
2021/10/19 10:38:56;;;;;;;13.48;12.48;;;43.80;20.30;;;;;;6151587;28;20228;-65
2021/10/19 10:42:09;;;;;;;12.73;11.48;;;43.70;19.90;;;;;;6151204;28;20235;-65
2021/10/19 10:45:20;;;;;;;13.07;11.80;;;44.20;19.80;;;;;;6150959;28;20677;-66
2021/10/19 10:48:24;;;;;;;11.93;11.10;;;45.10;19.50;;;;;;6151280;28;20244;-64
2021/10/19 10:51:30;;;;;;;12.95;11.77;;;45.40;18.70;;;;;;6147562;28;20350;-64
2021/10/19 10:54:34;;;;;;;12.73;11.45;;;45.00;18.40;;;;;;6127349;28;20540;-66
2021/10/19 10:57:43;;;;;;;11.30;10.30;;;44.80;19.00;;;;;;6127340;28;20658;-64
2021/10/19 11:00:46;;;;;;;10.90;10.00;;;45.70;18.70;;;;;;6136327;28;20228;-66
2021/10/19 11:03:52;;;;;;;13.15;11.52;;;45.60;18.30;;;;;;6138704;28;20224;-66
2021/10/19 11:06:57;;;;;;;10.80;9.90;;;46.30;18.20;;;;;;6138144;28;20230;-64
2021/10/19 11:10:08;;;;;;;12.63;11.48;;;47.20;17.40;;;;;;6139750;28;20639;-64
2021/10/19 11:13:11;;;;;;;10.90;10.00;;;43.50;18.90;;;;;;6137844;28;20365;-65
2021/10/19 11:16:15;;;;;;;11.82;10.82;;;43.60;19.20;;;;;;6139750;28;20584;-64
2021/10/19 11:19:23;;;;;;;11.88;10.68;;;44.40;18.80;;;;;;6149448;28;20355;-65
2021/10/19 11:22:32;;;;;;;12.45;11.35;;;44.80;18.50;;;;;;6157480;28;20242;-65
2021/10/19 11:25:35;;;;;;;11.63;10.70;;;44.90;18.70;;;;;;6160660;28;20231;-67
2021/10/19 11:28:41;;;;;;;11.25;10.25;;;45.80;18.30;;;;;;6181626;28;20582;-66
2021/10/19 11:31:45;;;;;;;12.10;10.95;;;45.70;18.20;;;;;;6179980;28;20253;-65
2021/10/19 11:34:48;;;;;;;10.10;9.30;;;46.40;17.80;;;;;;6168806;28;20591;-65
2021/10/19 11:37:53;;;;;;;13.40;10.18;;;46.80;17.50;;;;;;6154563;28;20238;-67
2021/10/19 11:41:06;;;;;;;10.68;9.57;;;46.10;17.30;;;;;;6154676;28;20573;-66
2021/10/19 11:44:10;;;;;;;10.75;9.93;;;45.60;18.00;;;;;;6155541;28;20256;-65
2021/10/19 11:47:13;;;;;;;11.27;10.38;;;46.10;17.60;;;;;;6154595;28;20246;-65
2021/10/19 11:50:19;;;;;;;10.43;9.52;;;46.50;17.60;;;;;;6155126;28;20227;-65
2021/10/19 11:53:23;;;;;;;9.05;8.30;;;47.30;17.40;;;;;;6154855;28;20254;-67
2021/10/19 11:56:27;;;;;;;10.48;9.77;;;47.60;16.90;;;;;;6154876;28;20243;-65
2021/10/19 11:59:41;;;;;;;11.07;9.98;;;46.60;17.10;;;;;;6155629;28;20235;-65
2021/10/19 12:02:51;;;;;;;9.30;8.60;;;46.20;17.70;;;;;;6154716;28;20256;-66
2021/10/19 12:05:55;;;;;;;10.85;9.77;;;46.20;17.20;;;;;;6153938;28;20256;-64
2021/10/19 12:09:12;;;;;;;9.57;8.77;;;45.90;17.40;;;;;;6153794;28;20232;-64
2021/10/19 12:12:15;;;;;;;9.98;9.07;;;45.80;17.30;;;;;;6144238;28;20244;-64
2021/10/19 12:15:20;;;;;;;9.27;8.35;;;46.00;17.40;;;;;;6150191;28;20713;-63
2021/10/19 12:18:23;;;;;;;9.13;8.43;;;45.80;17.10;;;;;;6152366;28;20231;-64
2021/10/19 12:21:29;;;;;;;8.57;7.88;;;44.50;17.80;;;;;;6152542;28;20221;-64
2021/10/19 12:24:37;;;;;;;8.15;7.35;;;43.50;18.30;;;;;;6153009;28;20210;-64
2021/10/19 12:27:43;;;;;;;8.48;7.68;;;43.90;18.10;;;;;;6153186;28;20235;-64
2021/10/19 12:30:47;;;;;;;8.50;7.90;;;44.10;17.80;;;;;;6154029;28;20238;-64
2021/10/19 12:33:55;;;;;;;8.65;7.85;;;43.80;18.00;;;;;;6153941;28;20226;-64
2021/10/19 12:37:02;;;;;;;7.68;7.13;;;43.50;17.80;;;;;;6153981;28;20234;-64
2021/10/19 12:40:13;;;;;;;7.20;6.65;;;43.20;18.30;;;;;;6154057;28;20251;-64
2021/10/19 12:43:16;;;;;;;6.30;5.75;;;43.20;18.20;;;;;;6153373;28;20618;-64
2021/10/19 12:46:36;;;;;;;6.32;5.78;;;42.30;18.20;;;;;;6153466;28;20324;-64
2021/10/19 12:49:40;;;;;;;7.53;6.82;;;41.60;18.80;;;;;;6153314;28;20717;-64
2021/10/19 12:52:43;;;;;;;6.72;6.22;;;41.20;19.40;;;;;;6153588;28;20229;-64
2021/10/19 12:55:47;;;;;;;6.45;5.93;;;40.50;19.60;;;;;;6153244;28;20250;-64
2021/10/19 12:58:51;;;;;;;7.18;6.53;;;40.90;19.60;;;;;;6152932;28;20693;-64
2021/10/19 13:01:59;;;;;;;7.22;6.63;;;41.00;19.60;;;;;;6153359;28;20238;-64
2021/10/19 13:05:02;;;;;;;8.07;6.68;;;40.30;19.60;;;;;;6154871;28;20226;-64
2021/10/19 13:08:05;;;;;;;6.57;5.90;;;39.10;20.20;;;;;;6153140;28;20242;-64
2021/10/19 13:11:10;;;;;;;6.55;6.05;;;36.60;22.00;;;;;;6153096;28;20234;-64
2021/10/19 13:14:13;;;;;;;8.10;7.40;;;34.20;24.10;;;;;;6148643;28;20245;-64
2021/10/19 13:17:16;;;;;;;7.13;6.50;;;32.70;26.20;;;;;;6152676;28;20246;-64
2021/10/19 13:20:19;;;;;;;6.95;6.30;;;32.80;26.50;;;;;;6160592;28;20241;-63
2021/10/19 13:23:23;;;;;;;7.30;6.68;;;35.00;25.50;;;;;;6152733;28;20245;-63
2021/10/19 13:26:29;;;;;;;7.85;7.15;;;36.70;23.80;;;;;;6152675;28;20226;-63
2021/10/19 13:29:32;;;;;;;8.05;7.38;;;35.10;24.90;;;;;;6152476;28;20331;-63
2021/10/19 13:32:35;;;;;;;7.90;7.20;;;35.60;24.90;;;;;;6154150;28;20693;-63
2021/10/19 13:35:39;;;;;;;7.40;6.80;;;34.80;25.30;;;;;;6143073;28;20293;-63
2021/10/19 13:38:42;;;;;;;7.82;7.22;;;34.20;26.10;;;;;;6129787;28;20242;-63
2021/10/19 13:41:48;;;;;;;8.10;7.28;;;33.00;27.10;;;;;;6128617;28;20366;-63
2021/10/19 13:44:51;;;;;;;8.77;7.97;;;31.80;28.50;;;;;;6140562;28;20242;-63
2021/10/19 13:47:54;;;;;;;8.50;7.80;;;30.00;30.60;;;;;;6152431;28;20238;-63
2021/10/19 13:50:57;;;;;;;9.67;8.87;;;28.70;32.60;;;;;;6152334;28;20234;-63
2021/10/19 13:54:01;;;;;;;7.97;7.37;;;26.30;36.20;;;;;;6152150;28;20237;-63
2021/10/19 13:57:05;;;;;;;9.00;7.40;;;25.50;38.00;;;;;;6151666;28;20240;-63
2021/10/19 14:00:11;;;;;;;7.10;6.40;;;24.90;39.70;;;;;;6151921;28;20245;-62
2021/10/19 14:03:14;;;;;;;9.30;7.83;;;24.10;40.70;;;;;;6152094;28;20927;-62
2021/10/19 14:06:17;;;;;;;8.33;7.63;;;23.60;41.80;;;;;;6152044;28;20227;-62
2021/10/19 14:09:21;;;;;;;7.20;6.60;;;22.90;42.90;;;;;;6151636;28;20222;-62
2021/10/19 14:12:25;;;;;;;7.40;6.77;;;22.80;44.20;;;;;;6151662;28;20225;-62
2021/10/19 14:15:31;;;;;;;7.83;7.03;;;22.50;44.30;;;;;;6151364;28;20722;-63
2021/10/19 14:18:34;;;;;;;7.93;7.20;;;22.20;45.10;;;;;;6147845;28;20304;-62
2021/10/19 14:21:37;;;;;;;10.50;8.40;;;22.00;45.80;;;;;;6151613;28;20269;-63
2021/10/19 14:24:41;;;;;;;7.67;6.97;;;21.80;46.50;;;;;;6151667;28;20622;-63
2021/10/19 14:27:45;;;;;;;7.40;6.80;;;21.50;46.90;;;;;;6151617;28;20241;-62
2021/10/19 14:30:49;;;;;;;7.50;6.80;;;21.30;47.90;;;;;;6151760;28;20226;-62
2021/10/19 14:33:52;;;;;;;9.07;8.17;;;21.10;48.50;;;;;;6151293;28;20691;-63
2021/10/19 14:36:56;;;;;;;8.60;7.90;;;21.00;49.10;;;;;;6151449;28;20242;-62
2021/10/19 14:39:59;;;;;;;9.80;8.50;;;20.60;50.30;;;;;;6151120;28;20241;-61
2021/10/19 14:43:03;;;;;;;8.30;7.43;;;20.40;51.30;;;;;;6151755;28;20234;-61
2021/10/19 14:46:06;;;;;;;9.03;8.30;;;20.10;52.20;;;;;;6151566;28;20663;-61
2021/10/19 14:49:10;;;;;;;7.63;7.00;;;20.10;52.70;;;;;;6151383;28;20373;-61
2021/10/19 14:52:13;;;;;;;9.17;8.27;;;20.00;53.30;;;;;;6151148;28;20242;-61
2021/10/19 14:55:16;;;;;;;8.90;8.10;;;19.80;53.70;;;;;;6153935;28;20242;-62
2021/10/19 14:58:21;;;;;;;10.40;6.90;;;19.70;54.30;;;;;;6155961;28;20576;-61
2021/10/19 15:01:24;;;;;;;9.67;8.83;;;19.60;54.90;;;;;;6155597;28;20261;-64
2021/10/19 15:04:27;;;;;;;8.43;7.73;;;19.50;55.00;;;;;;6155990;28;20574;-65
2021/10/19 15:07:30;;;;;;;10.00;8.93;;;19.50;55.60;;;;;;6154635;28;20254;-64
2021/10/19 15:10:34;;;;;;;8.57;7.80;;;19.40;55.90;;;;;;6132017;28;20239;-64
2021/10/19 15:13:38;;;;;;;9.17;8.03;;;19.20;56.20;;;;;;6132236;28;20231;-64
2021/10/19 15:16:42;;;;;;;11.93;9.63;;;19.00;57.00;;;;;;6131763;28;20250;-64
2021/10/19 15:19:45;;;;;;;10.37;9.30;;;18.80;58.20;;;;;;6148690;28;20247;-66
2021/10/19 15:22:48;;;;;;;10.47;9.10;;;18.70;59.20;;;;;;6146408;28;20237;-62
2021/10/19 15:25:52;;;;;;;9.47;8.53;;;18.60;60.20;;;;;;6155163;28;20239;-62
2021/10/19 15:28:57;;;;;;;10.10;9.30;;;18.40;61.60;;;;;;6154867;28;20230;-64
2021/10/19 15:32:02;;;;;;;9.90;8.60;;;18.40;62.70;;;;;;6155879;28;20234;-63
2021/10/19 15:35:06;;;;;;;9.80;8.93;;;18.40;63.50;;;;;;6157656;28;20497;-63
2021/10/19 15:38:10;;;;;;;11.17;9.43;;;18.20;64.10;;;;;;6154809;28;20481;-63
2021/10/19 15:41:13;;;;;;;10.80;9.70;;;18.20;65.30;;;;;;6153910;28;20238;-63
2021/10/19 15:44:17;;;;;;;9.77;8.87;;;18.10;66.40;;;;;;6154122;28;20833;-63